createdAt,value
2019-06-10T00:07:00.941Z,0.2
2019-06-10T00:37:01.977Z,0.2
2019-06-10T01:07:04.157Z,0.2
2019-06-10T01:37:03.711Z,2.1
2019-06-10T02:07:23.265Z,4.5
2019-06-10T02:37:37.873Z,3.4
2019-06-10T03:07:24.066Z,2.6
2019-06-10T03:37:20.949Z,2
2019-06-10T04:37:06.072Z,1.1
2019-06-10T05:07:07.902Z,0.9
2019-06-10T05:37:07.857Z,0.7
2019-06-10T06:07:09.083Z,0.5
2019-06-10T06:37:12.592Z,0.4
2019-06-10T07:07:15.566Z,0.3
2019-06-10T07:37:16.946Z,0.3
2019-06-10T08:07:17.845Z,0.3
2019-06-10T08:37:20.621Z,0.2
2019-06-10T09:07:23.228Z,0.2
2019-06-10T09:37:26.520Z,0.2
2019-06-10T10:07:24.589Z,0.2
2019-06-10T10:37:25.300Z,0.1
2019-06-10T11:07:25.929Z,0.1
2019-06-10T11:37:27.017Z,0.1
2019-06-10T12:07:29.046Z,0.1
2019-06-10T12:37:28.278Z,0.1
2019-06-10T13:07:28.036Z,0.1
2019-06-10T13:37:34.102Z,0.1
2019-06-10T14:07:32.399Z,0.2
2019-06-10T14:37:45.733Z,0.2
2019-06-10T15:07:34.166Z,0.2
2019-06-10T15:37:36.180Z,0.2
2019-06-10T16:07:33.988Z,0.2
2019-06-10T16:37:36.818Z,0.1
2019-06-10T17:07:37.420Z,0.1
2019-06-10T17:37:38.803Z,0.1
2019-06-10T18:07:41.537Z,0.1
2019-06-10T18:37:45.565Z,0.2
2019-06-10T19:07:48.701Z,0.2
2019-06-10T19:38:12.451Z,0.2
2019-06-10T20:08:13.596Z,0.2
2019-06-10T20:38:12.936Z,0.2
2019-06-10T21:06:16.649Z,0.3
2019-06-10T21:36:25.920Z,0.3
2019-06-10T22:06:27.155Z,0.3
2019-06-10T22:36:26.586Z,0.3
2019-06-10T23:06:26.583Z,0.3
2019-06-10T23:36:28.655Z,0.3
